sensor_id;sensor_type;location;lat;lon;timestamp;P1;durP1;ratioP1;P2;durP2;ratioP2
68680;SDS011;55836;49.858;6.756;2023-02-15T00:01:11;20.57;;;13.27;;
68680;SDS011;55836;49.858;6.756;2023-02-15T00:03:37;19.90;;;11.90;;
68680;SDS011;55836;49.858;6.756;2023-02-15T00:06:04;20.53;;;11.90;;
68680;SDS011;55836;49.858;6.756;2023-02-15T00:08:30;17.67;;;11.87;;
68680;SDS011;55836;49.858;6.756;2023-02-15T00:11:18;16.90;;;10.93;;
68680;SDS011;55836;49.858;6.756;2023-02-15T00:14:04;17.53;;;11.00;;
68680;SDS011;55836;49.858;6.756;2023-02-15T00:16:30;17.50;;;12.00;;
68680;SDS011;55836;49.858;6.756;2023-02-15T00:18:56;18.17;;;10.93;;
68680;SDS011;55836;49.858;6.756;2023-02-15T00:21:22;18.67;;;10.90;;
68680;SDS011;55836;49.858;6.756;2023-02-15T00:23:48;17.93;;;10.93;;
68680;SDS011;55836;49.858;6.756;2023-02-15T00:26:14;16.87;;;11.37;;
68680;SDS011;55836;49.858;6.756;2023-02-15T00:28:40;20.43;;;12.50;;
68680;SDS011;55836;49.858;6.756;2023-02-15T00:31:06;21.70;;;11.30;;
68680;SDS011;55836;49.858;6.756;2023-02-15T00:33:33;18.40;;;11.60;;
68680;SDS011;55836;49.858;6.756;2023-02-15T00:36:00;21.43;;;12.80;;
68680;SDS011;55836;49.858;6.756;2023-02-15T00:38:29;25.27;;;14.57;;
68680;SDS011;55836;49.858;6.756;2023-02-15T00:40:56;25.00;;;14.37;;
68680;SDS011;55836;49.858;6.756;2023-02-15T00:43:23;20.03;;;13.03;;
68680;SDS011;55836;49.858;6.756;2023-02-15T00:45:49;19.83;;;12.90;;
68680;SDS011;55836;49.858;6.756;2023-02-15T00:48:15;18.50;;;11.70;;
68680;SDS011;55836;49.858;6.756;2023-02-15T00:50:41;17.97;;;12.43;;
68680;SDS011;55836;49.858;6.756;2023-02-15T00:53:10;19.67;;;11.47;;
68680;SDS011;55836;49.858;6.756;2023-02-15T00:55:36;17.63;;;11.70;;
68680;SDS011;55836;49.858;6.756;2023-02-15T00:58:04;19.30;;;11.77;;
68680;SDS011;55836;49.858;6.756;2023-02-15T01:00:30;19.63;;;11.30;;
68680;SDS011;55836;49.858;6.756;2023-02-15T01:02:56;19.07;;;12.73;;
68680;SDS011;55836;49.858;6.756;2023-02-15T01:05:22;22.90;;;13.87;;
68680;SDS011;55836;49.858;6.756;2023-02-15T01:07:48;20.27;;;12.50;;
68680;SDS011;55836;49.858;6.756;2023-02-15T01:10:14;21.80;;;12.93;;
68680;SDS011;55836;49.858;6.756;2023-02-15T01:12:40;23.53;;;14.33;;
68680;SDS011;55836;49.858;6.756;2023-02-15T01:15:06;19.97;;;12.10;;
68680;SDS011;55836;49.858;6.756;2023-02-15T01:17:32;20.67;;;12.97;;
68680;SDS011;55836;49.858;6.756;2023-02-15T01:19:58;23.37;;;13.20;;
68680;SDS011;55836;49.858;6.756;2023-02-15T01:22:25;18.93;;;12.13;;
68680;SDS011;55836;49.858;6.756;2023-02-15T01:24:51;22.10;;;13.33;;
68680;SDS011;55836;49.858;6.756;2023-02-15T01:27:17;22.50;;;13.77;;
68680;SDS011;55836;49.858;6.756;2023-02-15T01:29:43;21.40;;;13.40;;
68680;SDS011;55836;49.858;6.756;2023-02-15T01:32:09;22.97;;;13.57;;
68680;SDS011;55836;49.858;6.756;2023-02-15T01:34:36;21.33;;;13.77;;
68680;SDS011;55836;49.858;6.756;2023-02-15T01:37:01;21.93;;;13.27;;
68680;SDS011;55836;49.858;6.756;2023-02-15T01:39:27;22.53;;;12.67;;
68680;SDS011;55836;49.858;6.756;2023-02-15T01:41:53;22.33;;;14.00;;
68680;SDS011;55836;49.858;6.756;2023-02-15T01:44:44;22.83;;;13.10;;
68680;SDS011;55836;49.858;6.756;2023-02-15T01:47:07;22.20;;;13.13;;
68680;SDS011;55836;49.858;6.756;2023-02-15T01:49:33;26.63;;;13.37;;
68680;SDS011;55836;49.858;6.756;2023-02-15T01:51:59;24.87;;;14.07;;
68680;SDS011;55836;49.858;6.756;2023-02-15T01:54:32;25.53;;;13.87;;
68680;SDS011;55836;49.858;6.756;2023-02-15T01:57:02;22.80;;;13.80;;
68680;SDS011;55836;49.858;6.756;2023-02-15T01:59:29;24.97;;;14.57;;
68680;SDS011;55836;49.858;6.756;2023-02-15T02:01:56;23.50;;;13.53;;
68680;SDS011;55836;49.858;6.756;2023-02-15T02:06:56;22.80;;;12.90;;
68680;SDS011;55836;49.858;6.756;2023-02-15T02:09:23;23.50;;;14.17;;
68680;SDS011;55836;49.858;6.756;2023-02-15T02:11:49;23.33;;;13.20;;
68680;SDS011;55836;49.858;6.756;2023-02-15T02:14:16;21.17;;;14.20;;
68680;SDS011;55836;49.858;6.756;2023-02-15T02:17:02;23.30;;;13.70;;
68680;SDS011;55836;49.858;6.756;2023-02-15T02:27:49;21.73;;;13.17;;
68680;SDS011;55836;49.858;6.756;2023-02-15T02:40:30;22.20;;;13.43;;
68680;SDS011;55836;49.858;6.756;2023-02-15T02:43:01;21.77;;;13.90;;
68680;SDS011;55836;49.858;6.756;2023-02-15T02:45:32;21.07;;;12.80;;
68680;SDS011;55836;49.858;6.756;2023-02-15T02:48:09;23.13;;;14.77;;
68680;SDS011;55836;49.858;6.756;2023-02-15T02:50:38;20.80;;;12.70;;
68680;SDS011;55836;49.858;6.756;2023-02-15T02:53:04;21.57;;;13.00;;
68680;SDS011;55836;49.858;6.756;2023-02-15T03:00:26;23.93;;;13.60;;
68680;SDS011;55836;49.858;6.756;2023-02-15T03:02:59;22.27;;;13.47;;
68680;SDS011;55836;49.858;6.756;2023-02-15T03:05:29;21.53;;;13.97;;
68680;SDS011;55836;49.858;6.756;2023-02-15T03:07:56;21.60;;;13.50;;
68680;SDS011;55836;49.858;6.756;2023-02-15T03:10:26;21.83;;;12.73;;
68680;SDS011;55836;49.858;6.756;2023-02-15T03:12:54;20.47;;;12.83;;
68680;SDS011;55836;49.858;6.756;2023-02-15T03:15:23;22.80;;;13.87;;
68680;SDS011;55836;49.858;6.756;2023-02-15T03:17:57;21.47;;;12.93;;
68680;SDS011;55836;49.858;6.756;2023-02-15T03:20:30;25.77;;;13.53;;
68680;SDS011;55836;49.858;6.756;2023-02-15T03:22:59;22.30;;;13.90;;
68680;SDS011;55836;49.858;6.756;2023-02-15T03:25:33;18.13;;;11.97;;
68680;SDS011;55836;49.858;6.756;2023-02-15T03:28:01;22.20;;;12.77;;
68680;SDS011;55836;49.858;6.756;2023-02-15T03:30:27;18.80;;;13.10;;
68680;SDS011;55836;49.858;6.756;2023-02-15T03:32:55;20.63;;;12.23;;
68680;SDS011;55836;49.858;6.756;2023-02-15T03:35:22;22.83;;;13.13;;
68680;SDS011;55836;49.858;6.756;2023-02-15T03:37:57;19.60;;;12.53;;
68680;SDS011;55836;49.858;6.756;2023-02-15T03:40:31;21.87;;;12.73;;
68680;SDS011;55836;49.858;6.756;2023-02-15T03:45:45;22.43;;;13.73;;
68680;SDS011;55836;49.858;6.756;2023-02-15T03:48:23;24.30;;;13.50;;
68680;SDS011;55836;49.858;6.756;2023-02-15T03:50:50;22.00;;;13.30;;
68680;SDS011;55836;49.858;6.756;2023-02-15T03:53:36;25.57;;;15.00;;
68680;SDS011;55836;49.858;6.756;2023-02-15T03:56:03;23.57;;;13.77;;
68680;SDS011;55836;49.858;6.756;2023-02-15T03:58:29;26.73;;;15.37;;
68680;SDS011;55836;49.858;6.756;2023-02-15T04:01:17;27.47;;;14.40;;
68680;SDS011;55836;49.858;6.756;2023-02-15T04:04:07;28.63;;;15.67;;
68680;SDS011;55836;49.858;6.756;2023-02-15T04:06:34;25.83;;;15.97;;
68680;SDS011;55836;49.858;6.756;2023-02-15T04:09:00;27.43;;;17.53;;
68680;SDS011;55836;49.858;6.756;2023-02-15T04:11:45;31.33;;;17.97;;
68680;SDS011;55836;49.858;6.756;2023-02-15T04:14:11;32.17;;;16.17;;
68680;SDS011;55836;49.858;6.756;2023-02-15T04:16:55;70.40;;;21.50;;
68680;SDS011;55836;49.858;6.756;2023-02-15T04:19:21;57.17;;;19.20;;
68680;SDS011;55836;49.858;6.756;2023-02-15T04:22:06;32.63;;;17.47;;
68680;SDS011;55836;49.858;6.756;2023-02-15T04:24:50;44.07;;;17.77;;
68680;SDS011;55836;49.858;6.756;2023-02-15T04:27:35;46.07;;;18.37;;
68680;SDS011;55836;49.858;6.756;2023-02-15T04:30:02;40.00;;;18.67;;
68680;SDS011;55836;49.858;6.756;2023-02-15T04:32:28;33.63;;;16.63;;
68680;SDS011;55836;49.858;6.756;2023-02-15T04:34:54;28.27;;;16.43;;
68680;SDS011;55836;49.858;6.756;2023-02-15T04:37:20;31.17;;;16.93;;
68680;SDS011;55836;49.858;6.756;2023-02-15T04:39:46;31.20;;;18.03;;
68680;SDS011;55836;49.858;6.756;2023-02-15T04:42:12;31.93;;;19.57;;
68680;SDS011;55836;49.858;6.756;2023-02-15T04:44:38;29.63;;;19.07;;
68680;SDS011;55836;49.858;6.756;2023-02-15T04:47:04;32.70;;;19.57;;
68680;SDS011;55836;49.858;6.756;2023-02-15T04:49:30;33.73;;;19.40;;
68680;SDS011;55836;49.858;6.756;2023-02-15T04:51:56;34.43;;;19.37;;
68680;SDS011;55836;49.858;6.756;2023-02-15T04:54:22;35.50;;;16.90;;
68680;SDS011;55836;49.858;6.756;2023-02-15T04:56:48;29.13;;;15.97;;
68680;SDS011;55836;49.858;6.756;2023-02-15T04:59:14;34.83;;;17.87;;
68680;SDS011;55836;49.858;6.756;2023-02-15T05:01:40;29.93;;;17.50;;
68680;SDS011;55836;49.858;6.756;2023-02-15T05:04:06;32.07;;;18.13;;
68680;SDS011;55836;49.858;6.756;2023-02-15T05:06:32;35.80;;;18.30;;
68680;SDS011;55836;49.858;6.756;2023-02-15T05:08:58;34.70;;;17.83;;
68680;SDS011;55836;49.858;6.756;2023-02-15T05:11:25;30.30;;;15.87;;
68680;SDS011;55836;49.858;6.756;2023-02-15T05:13:51;33.30;;;17.53;;
68680;SDS011;55836;49.858;6.756;2023-02-15T05:16:17;35.23;;;19.40;;
68680;SDS011;55836;49.858;6.756;2023-02-15T05:18:43;35.93;;;19.33;;
68680;SDS011;55836;49.858;6.756;2023-02-15T05:21:09;25.63;;;16.00;;
68680;SDS011;55836;49.858;6.756;2023-02-15T05:23:35;27.80;;;17.63;;
68680;SDS011;55836;49.858;6.756;2023-02-15T05:26:01;29.17;;;16.73;;
68680;SDS011;55836;49.858;6.756;2023-02-15T05:28:46;29.80;;;16.20;;
68680;SDS011;55836;49.858;6.756;2023-02-15T05:31:16;27.03;;;16.27;;
68680;SDS011;55836;49.858;6.756;2023-02-15T05:33:43;28.63;;;14.03;;
68680;SDS011;55836;49.858;6.756;2023-02-15T05:36:10;39.93;;;13.40;;
68680;SDS011;55836;49.858;6.756;2023-02-15T05:38:36;34.77;;;16.60;;
68680;SDS011;55836;49.858;6.756;2023-02-15T05:41:03;35.43;;;15.63;;
68680;SDS011;55836;49.858;6.756;2023-02-15T05:43:29;44.00;;;15.13;;
68680;SDS011;55836;49.858;6.756;2023-02-15T05:45:55;26.13;;;14.87;;
68680;SDS011;55836;49.858;6.756;2023-02-15T05:48:22;31.93;;;14.37;;
68680;SDS011;55836;49.858;6.756;2023-02-15T05:50:58;32.53;;;15.27;;
68680;SDS011;55836;49.858;6.756;2023-02-15T05:53:25;35.20;;;14.73;;
68680;SDS011;55836;49.858;6.756;2023-02-15T05:55:51;27.33;;;14.20;;
68680;SDS011;55836;49.858;6.756;2023-02-15T05:58:18;26.80;;;15.30;;
68680;SDS011;55836;49.858;6.756;2023-02-15T06:00:44;31.43;;;15.50;;
68680;SDS011;55836;49.858;6.756;2023-02-15T06:03:10;29.83;;;16.70;;
68680;SDS011;55836;49.858;6.756;2023-02-15T06:05:36;30.47;;;15.93;;
68680;SDS011;55836;49.858;6.756;2023-02-15T06:08:02;32.50;;;16.80;;
68680;SDS011;55836;49.858;6.756;2023-02-15T06:10:28;32.20;;;15.33;;
68680;SDS011;55836;49.858;6.756;2023-02-15T06:12:55;38.90;;;15.20;;
68680;SDS011;55836;49.858;6.756;2023-02-15T06:15:21;28.50;;;15.57;;
68680;SDS011;55836;49.858;6.756;2023-02-15T06:17:47;29.63;;;14.23;;
68680;SDS011;55836;49.858;6.756;2023-02-15T06:20:13;33.00;;;14.87;;
68680;SDS011;55836;49.858;6.756;2023-02-15T06:22:39;29.23;;;15.83;;
68680;SDS011;55836;49.858;6.756;2023-02-15T06:25:05;33.33;;;14.63;;
68680;SDS011;55836;49.858;6.756;2023-02-15T06:27:31;36.27;;;17.10;;
68680;SDS011;55836;49.858;6.756;2023-02-15T06:29:57;35.90;;;15.23;;
68680;SDS011;55836;49.858;6.756;2023-02-15T06:32:23;32.23;;;16.13;;
68680;SDS011;55836;49.858;6.756;2023-02-15T06:34:49;28.77;;;15.30;;
68680;SDS011;55836;49.858;6.756;2023-02-15T06:37:15;27.47;;;15.93;;
68680;SDS011;55836;49.858;6.756;2023-02-15T06:39:41;29.43;;;15.37;;
68680;SDS011;55836;49.858;6.756;2023-02-15T06:42:07;29.10;;;16.30;;
68680;SDS011;55836;49.858;6.756;2023-02-15T06:44:33;27.70;;;14.83;;
68680;SDS011;55836;49.858;6.756;2023-02-15T06:46:59;30.03;;;15.03;;
68680;SDS011;55836;49.858;6.756;2023-02-15T06:49:25;28.07;;;15.93;;
68680;SDS011;55836;49.858;6.756;2023-02-15T06:51:52;25.77;;;15.40;;
68680;SDS011;55836;49.858;6.756;2023-02-15T06:54:18;24.73;;;13.80;;
68680;SDS011;55836;49.858;6.756;2023-02-15T06:56:44;24.20;;;13.97;;
68680;SDS011;55836;49.858;6.756;2023-02-15T06:59:10;27.57;;;14.30;;
68680;SDS011;55836;49.858;6.756;2023-02-15T07:01:36;32.13;;;14.27;;
68680;SDS011;55836;49.858;6.756;2023-02-15T07:04:02;23.47;;;13.93;;
68680;SDS011;55836;49.858;6.756;2023-02-15T07:06:32;28.67;;;15.03;;
68680;SDS011;55836;49.858;6.756;2023-02-15T07:08:58;26.70;;;15.67;;
68680;SDS011;55836;49.858;6.756;2023-02-15T07:11:24;22.03;;;13.00;;
68680;SDS011;55836;49.858;6.756;2023-02-15T07:14:16;27.73;;;14.40;;
68680;SDS011;55836;49.858;6.756;2023-02-15T07:16:42;24.10;;;14.27;;
68680;SDS011;55836;49.858;6.756;2023-02-15T07:19:08;27.63;;;14.40;;
68680;SDS011;55836;49.858;6.756;2023-02-15T07:21:35;32.07;;;15.93;;
68680;SDS011;55836;49.858;6.756;2023-02-15T07:24:02;24.80;;;15.27;;
68680;SDS011;55836;49.858;6.756;2023-02-15T07:26:28;25.30;;;15.47;;
68680;SDS011;55836;49.858;6.756;2023-02-15T07:28:54;29.60;;;17.53;;
68680;SDS011;55836;49.858;6.756;2023-02-15T07:31:20;31.30;;;16.70;;
68680;SDS011;55836;49.858;6.756;2023-02-15T07:33:46;28.20;;;15.30;;
68680;SDS011;55836;49.858;6.756;2023-02-15T07:36:12;26.97;;;16.27;;
68680;SDS011;55836;49.858;6.756;2023-02-15T07:38:39;28.50;;;15.97;;
68680;SDS011;55836;49.858;6.756;2023-02-15T07:41:09;29.57;;;15.23;;
68680;SDS011;55836;49.858;6.756;2023-02-15T07:43:36;25.63;;;15.27;;
68680;SDS011;55836;49.858;6.756;2023-02-15T07:46:03;26.87;;;15.80;;
68680;SDS011;55836;49.858;6.756;2023-02-15T07:48:30;28.93;;;16.37;;
68680;SDS011;55836;49.858;6.756;2023-02-15T07:51:00;24.23;;;14.63;;
68680;SDS011;55836;49.858;6.756;2023-02-15T07:53:26;25.47;;;14.87;;
68680;SDS011;55836;49.858;6.756;2023-02-15T07:55:52;31.70;;;17.90;;
68680;SDS011;55836;49.858;6.756;2023-02-15T07:58:18;30.13;;;16.70;;
68680;SDS011;55836;49.858;6.756;2023-02-15T08:00:45;27.67;;;15.37;;
68680;SDS011;55836;49.858;6.756;2023-02-15T08:03:26;41.50;;;19.00;;
68680;SDS011;55836;49.858;6.756;2023-02-15T08:05:57;23.60;;;14.37;;
68680;SDS011;55836;49.858;6.756;2023-02-15T08:08:23;24.30;;;15.23;;
68680;SDS011;55836;49.858;6.756;2023-02-15T08:11:02;26.80;;;14.50;;
68680;SDS011;55836;49.858;6.756;2023-02-15T08:13:48;25.57;;;15.37;;
68680;SDS011;55836;49.858;6.756;2023-02-15T08:16:24;25.83;;;16.07;;
68680;SDS011;55836;49.858;6.756;2023-02-15T08:18:51;24.33;;;14.60;;
68680;SDS011;55836;49.858;6.756;2023-02-15T08:21:18;26.77;;;14.80;;
68680;SDS011;55836;49.858;6.756;2023-02-15T08:23:45;25.13;;;15.47;;
68680;SDS011;55836;49.858;6.756;2023-02-15T08:26:11;26.70;;;14.80;;
68680;SDS011;55836;49.858;6.756;2023-02-15T08:28:37;27.47;;;15.70;;
68680;SDS011;55836;49.858;6.756;2023-02-15T08:31:06;29.63;;;15.40;;
68680;SDS011;55836;49.858;6.756;2023-02-15T08:33:33;25.80;;;15.37;;
68680;SDS011;55836;49.858;6.756;2023-02-15T08:36:06;26.47;;;15.27;;
68680;SDS011;55836;49.858;6.756;2023-02-15T08:38:32;25.23;;;14.83;;
68680;SDS011;55836;49.858;6.756;2023-02-15T08:41:11;24.50;;;15.47;;
68680;SDS011;55836;49.858;6.756;2023-02-15T08:43:38;25.17;;;16.23;;
68680;SDS011;55836;49.858;6.756;2023-02-15T08:46:04;25.13;;;15.90;;
68680;SDS011;55836;49.858;6.756;2023-02-15T08:48:30;25.23;;;14.73;;
68680;SDS011;55836;49.858;6.756;2023-02-15T08:50:56;31.20;;;14.93;;
68680;SDS011;55836;49.858;6.756;2023-02-15T08:53:22;29.80;;;16.03;;
68680;SDS011;55836;49.858;6.756;2023-02-15T08:55:55;27.47;;;15.77;;
68680;SDS011;55836;49.858;6.756;2023-02-15T08:58:22;23.57;;;14.33;;
68680;SDS011;55836;49.858;6.756;2023-02-15T09:00:48;28.93;;;14.73;;
68680;SDS011;55836;49.858;6.756;2023-02-15T09:03:14;28.47;;;16.67;;
68680;SDS011;55836;49.858;6.756;2023-02-15T09:05:40;28.53;;;14.63;;
68680;SDS011;55836;49.858;6.756;2023-02-15T09:08:06;30.70;;;16.90;;
68680;SDS011;55836;49.858;6.756;2023-02-15T09:10:32;33.93;;;15.13;;
68680;SDS011;55836;49.858;6.756;2023-02-15T09:12:58;27.00;;;15.60;;
68680;SDS011;55836;49.858;6.756;2023-02-15T09:15:24;27.17;;;15.73;;
68680;SDS011;55836;49.858;6.756;2023-02-15T09:17:50;29.43;;;15.77;;
68680;SDS011;55836;49.858;6.756;2023-02-15T09:20:16;31.17;;;16.97;;
68680;SDS011;55836;49.858;6.756;2023-02-15T09:22:42;31.67;;;18.17;;
68680;SDS011;55836;49.858;6.756;2023-02-15T09:25:08;27.47;;;16.70;;
68680;SDS011;55836;49.858;6.756;2023-02-15T09:27:34;32.77;;;17.80;;
68680;SDS011;55836;49.858;6.756;2023-02-15T09:30:01;29.57;;;18.97;;
68680;SDS011;55836;49.858;6.756;2023-02-15T09:32:27;29.63;;;16.50;;
68680;SDS011;55836;49.858;6.756;2023-02-15T09:34:54;28.60;;;17.30;;
68680;SDS011;55836;49.858;6.756;2023-02-15T09:37:20;34.87;;;18.63;;
68680;SDS011;55836;49.858;6.756;2023-02-15T09:39:46;27.00;;;17.07;;
68680;SDS011;55836;49.858;6.756;2023-02-15T09:47:52;37.43;;;21.43;;
68680;SDS011;55836;49.858;6.756;2023-02-15T09:53:14;36.40;;;19.90;;
68680;SDS011;55836;49.858;6.756;2023-02-15T09:55:51;32.87;;;18.07;;
68680;SDS011;55836;49.858;6.756;2023-02-15T10:01:06;41.97;;;19.67;;
68680;SDS011;55836;49.858;6.756;2023-02-15T10:03:42;36.00;;;19.57;;
68680;SDS011;55836;49.858;6.756;2023-02-15T10:08:49;40.10;;;23.67;;
68680;SDS011;55836;49.858;6.756;2023-02-15T10:17:04;35.17;;;21.13;;
68680;SDS011;55836;49.858;6.756;2023-02-15T10:26:56;41.67;;;23.23;;
68680;SDS011;55836;49.858;6.756;2023-02-15T10:44:54;46.50;;;23.87;;
68680;SDS011;55836;49.858;6.756;2023-02-15T10:53:04;47.77;;;25.83;;
68680;SDS011;55836;49.858;6.756;2023-02-15T11:06:33;44.30;;;25.23;;
68680;SDS011;55836;49.858;6.756;2023-02-15T11:09:01;44.03;;;24.57;;
68680;SDS011;55836;49.858;6.756;2023-02-15T11:11:35;43.10;;;23.20;;
68680;SDS011;55836;49.858;6.756;2023-02-15T11:14:14;45.67;;;24.93;;
68680;SDS011;55836;49.858;6.756;2023-02-15T11:16:42;46.20;;;26.90;;
68680;SDS011;55836;49.858;6.756;2023-02-15T11:19:14;41.23;;;23.30;;
68680;SDS011;55836;49.858;6.756;2023-02-15T11:21:45;45.53;;;26.53;;
68680;SDS011;55836;49.858;6.756;2023-02-15T11:24:13;44.90;;;24.73;;
68680;SDS011;55836;49.858;6.756;2023-02-15T11:26:48;49.40;;;29.47;;
68680;SDS011;55836;49.858;6.756;2023-02-15T11:29:27;55.60;;;32.87;;
68680;SDS011;55836;49.858;6.756;2023-02-15T11:31:56;40.70;;;25.03;;
68680;SDS011;55836;49.858;6.756;2023-02-15T11:34:27;40.57;;;26.63;;
68680;SDS011;55836;49.858;6.756;2023-02-15T11:36:55;41.37;;;23.53;;
68680;SDS011;55836;49.858;6.756;2023-02-15T11:39:24;42.57;;;24.20;;
68680;SDS011;55836;49.858;6.756;2023-02-15T11:41:55;47.13;;;25.13;;
68680;SDS011;55836;49.858;6.756;2023-02-15T11:46:49;47.43;;;26.97;;
68680;SDS011;55836;49.858;6.756;2023-02-15T11:49:22;47.53;;;26.00;;
68680;SDS011;55836;49.858;6.756;2023-02-15T11:51:49;45.13;;;25.53;;
68680;SDS011;55836;49.858;6.756;2023-02-15T11:54:17;53.80;;;29.97;;
68680;SDS011;55836;49.858;6.756;2023-02-15T11:56:43;48.83;;;27.27;;
68680;SDS011;55836;49.858;6.756;2023-02-15T11:59:11;47.27;;;26.53;;
68680;SDS011;55836;49.858;6.756;2023-02-15T12:01:44;41.67;;;25.47;;
68680;SDS011;55836;49.858;6.756;2023-02-15T12:06:54;41.93;;;25.57;;
68680;SDS011;55836;49.858;6.756;2023-02-15T12:12:19;42.03;;;25.97;;
68680;SDS011;55836;49.858;6.756;2023-02-15T12:17:39;47.80;;;25.83;;
68680;SDS011;55836;49.858;6.756;2023-02-15T12:22:45;42.33;;;26.00;;
68680;SDS011;55836;49.858;6.756;2023-02-15T12:27:47;44.40;;;26.37;;
68680;SDS011;55836;49.858;6.756;2023-02-15T12:30:25;43.77;;;27.30;;
68680;SDS011;55836;49.858;6.756;2023-02-15T12:35:29;42.97;;;26.30;;
68680;SDS011;55836;49.858;6.756;2023-02-15T12:37:57;41.70;;;26.87;;
68680;SDS011;55836;49.858;6.756;2023-02-15T12:40:27;44.53;;;26.87;;
68680;SDS011;55836;49.858;6.756;2023-02-15T12:42:53;44.53;;;27.37;;
68680;SDS011;55836;49.858;6.756;2023-02-15T12:45:26;44.80;;;26.57;;
68680;SDS011;55836;49.858;6.756;2023-02-15T12:50:37;41.23;;;26.40;;
68680;SDS011;55836;49.858;6.756;2023-02-15T12:53:15;37.97;;;24.30;;
68680;SDS011;55836;49.858;6.756;2023-02-15T12:55:54;41.20;;;27.30;;
68680;SDS011;55836;49.858;6.756;2023-02-15T12:58:22;39.93;;;24.93;;
68680;SDS011;55836;49.858;6.756;2023-02-15T13:01:01;41.03;;;26.40;;
68680;SDS011;55836;49.858;6.756;2023-02-15T13:03:27;36.43;;;23.50;;
68680;SDS011;55836;49.858;6.756;2023-02-15T13:05:54;43.33;;;26.13;;
68680;SDS011;55836;49.858;6.756;2023-02-15T13:08:21;37.17;;;23.63;;
68680;SDS011;55836;49.858;6.756;2023-02-15T13:13:22;40.43;;;25.93;;
68680;SDS011;55836;49.858;6.756;2023-02-15T13:15:53;36.47;;;24.37;;
68680;SDS011;55836;49.858;6.756;2023-02-15T13:18:34;40.00;;;23.60;;
68680;SDS011;55836;49.858;6.756;2023-02-15T13:21:04;40.37;;;24.87;;
68680;SDS011;55836;49.858;6.756;2023-02-15T13:23:31;33.73;;;22.57;;
68680;SDS011;55836;49.858;6.756;2023-02-15T13:25:58;38.63;;;24.43;;
68680;SDS011;55836;49.858;6.756;2023-02-15T13:28:27;40.03;;;24.20;;
68680;SDS011;55836;49.858;6.756;2023-02-15T13:30:57;34.27;;;23.97;;
68680;SDS011;55836;49.858;6.756;2023-02-15T13:33:33;36.58;;;27.50;;
68680;SDS011;55836;49.858;6.756;2023-02-15T13:41:16;33.87;;;22.60;;
68680;SDS011;55836;49.858;6.756;2023-02-15T13:51:21;36.03;;;22.37;;
68680;SDS011;55836;49.858;6.756;2023-02-15T13:56:39;33.77;;;22.53;;
68680;SDS011;55836;49.858;6.756;2023-02-15T14:01:41;32.20;;;22.17;;
68680;SDS011;55836;49.858;6.756;2023-02-15T14:04:16;36.70;;;22.17;;
68680;SDS011;55836;49.858;6.756;2023-02-15T14:12:27;31.83;;;19.00;;
68680;SDS011;55836;49.858;6.756;2023-02-15T14:17:22;28.43;;;18.87;;
68680;SDS011;55836;49.858;6.756;2023-02-15T14:27:27;29.63;;;19.80;;
68680;SDS011;55836;49.858;6.756;2023-02-15T14:29:59;29.30;;;19.73;;
68680;SDS011;55836;49.858;6.756;2023-02-15T14:32:27;30.57;;;21.20;;
68680;SDS011;55836;49.858;6.756;2023-02-15T14:35:00;30.63;;;19.60;;
68680;SDS011;55836;49.858;6.756;2023-02-15T14:37:50;32.93;;;19.73;;
68680;SDS011;55836;49.858;6.756;2023-02-15T14:50:52;28.50;;;17.80;;
68680;SDS011;55836;49.858;6.756;2023-02-15T14:58:32;25.47;;;17.57;;
68680;SDS011;55836;49.858;6.756;2023-02-15T15:01:05;23.40;;;15.63;;
68680;SDS011;55836;49.858;6.756;2023-02-15T15:03:32;23.37;;;15.67;;
68680;SDS011;55836;49.858;6.756;2023-02-15T15:06:00;24.43;;;15.73;;
68680;SDS011;55836;49.858;6.756;2023-02-15T15:08:39;23.27;;;16.03;;
68680;SDS011;55836;49.858;6.756;2023-02-15T15:13:55;19.70;;;14.00;;
68680;SDS011;55836;49.858;6.756;2023-02-15T15:16:27;23.10;;;16.10;;
68680;SDS011;55836;49.858;6.756;2023-02-15T15:18:54;27.13;;;18.85;;
68680;SDS011;55836;49.858;6.756;2023-02-15T15:24:06;23.97;;;15.47;;
68680;SDS011;55836;49.858;6.756;2023-02-15T15:26:32;23.93;;;14.67;;
68680;SDS011;55836;49.858;6.756;2023-02-15T15:29:02;22.57;;;15.20;;
68680;SDS011;55836;49.858;6.756;2023-02-15T15:39:06;24.60;;;15.03;;
68680;SDS011;55836;49.858;6.756;2023-02-15T15:41:42;21.80;;;14.60;;
68680;SDS011;55836;49.858;6.756;2023-02-15T15:49:14;22.63;;;15.10;;
68680;SDS011;55836;49.858;6.756;2023-02-15T15:51:41;26.13;;;18.20;;
68680;SDS011;55836;49.858;6.756;2023-02-15T15:54:15;28.00;;;17.80;;
68680;SDS011;55836;49.858;6.756;2023-02-15T15:56:43;25.17;;;16.67;;
68680;SDS011;55836;49.858;6.756;2023-02-15T15:59:12;22.90;;;15.77;;
68680;SDS011;55836;49.858;6.756;2023-02-15T16:01:41;25.47;;;14.97;;
68680;SDS011;55836;49.858;6.756;2023-02-15T16:04:41;27.73;;;16.70;;
68680;SDS011;55836;49.858;6.756;2023-02-15T16:10:03;26.83;;;15.87;;
68680;SDS011;55836;49.858;6.756;2023-02-15T16:12:33;27.90;;;15.97;;
68680;SDS011;55836;49.858;6.756;2023-02-15T16:15:34;25.90;;;16.73;;
68680;SDS011;55836;49.858;6.756;2023-02-15T16:17:53;23.87;;;15.57;;
68680;SDS011;55836;49.858;6.756;2023-02-15T16:22:46;29.03;;;17.63;;
68680;SDS011;55836;49.858;6.756;2023-02-15T16:25:29;28.70;;;16.73;;
68680;SDS011;55836;49.858;6.756;2023-02-15T16:27:56;24.90;;;15.67;;
68680;SDS011;55836;49.858;6.756;2023-02-15T16:32:51;26.97;;;17.50;;
68680;SDS011;55836;49.858;6.756;2023-02-15T16:35:18;28.13;;;16.67;;
68680;SDS011;55836;49.858;6.756;2023-02-15T16:37:45;27.73;;;16.20;;
68680;SDS011;55836;49.858;6.756;2023-02-15T16:43:03;27.17;;;16.97;;
68680;SDS011;55836;49.858;6.756;2023-02-15T16:45:32;30.20;;;17.57;;
68680;SDS011;55836;49.858;6.756;2023-02-15T16:47:59;25.47;;;17.07;;
68680;SDS011;55836;49.858;6.756;2023-02-15T16:50:31;27.53;;;17.57;;
68680;SDS011;55836;49.858;6.756;2023-02-15T16:52:58;27.10;;;18.20;;
68680;SDS011;55836;49.858;6.756;2023-02-15T16:55:26;28.03;;;17.40;;
68680;SDS011;55836;49.858;6.756;2023-02-15T16:58:00;29.00;;;17.00;;
68680;SDS011;55836;49.858;6.756;2023-02-15T17:00:30;27.77;;;15.80;;
68680;SDS011;55836;49.858;6.756;2023-02-15T17:03:00;28.30;;;18.47;;
68680;SDS011;55836;49.858;6.756;2023-02-15T17:05:40;29.77;;;17.83;;
68680;SDS011;55836;49.858;6.756;2023-02-15T17:13:24;25.27;;;17.20;;
68680;SDS011;55836;49.858;6.756;2023-02-15T17:18:22;25.60;;;15.87;;
68680;SDS011;55836;49.858;6.756;2023-02-15T17:20:50;28.03;;;17.20;;
68680;SDS011;55836;49.858;6.756;2023-02-15T17:23:29;26.60;;;17.20;;
68680;SDS011;55836;49.858;6.756;2023-02-15T17:25:56;27.77;;;17.17;;
68680;SDS011;55836;49.858;6.756;2023-02-15T17:28:23;25.57;;;15.37;;
68680;SDS011;55836;49.858;6.756;2023-02-15T17:30:53;26.00;;;15.93;;
68680;SDS011;55836;49.858;6.756;2023-02-15T17:33:21;26.43;;;15.67;;
68680;SDS011;55836;49.858;6.756;2023-02-15T17:38:37;26.93;;;15.63;;
68680;SDS011;55836;49.858;6.756;2023-02-15T17:41:03;25.67;;;16.17;;
68680;SDS011;55836;49.858;6.756;2023-02-15T17:43:29;25.53;;;16.07;;
68680;SDS011;55836;49.858;6.756;2023-02-15T17:45:56;24.97;;;15.03;;
68680;SDS011;55836;49.858;6.756;2023-02-15T17:48:24;25.53;;;15.27;;
68680;SDS011;55836;49.858;6.756;2023-02-15T17:50:55;27.93;;;15.53;;
68680;SDS011;55836;49.858;6.756;2023-02-15T17:53:22;23.07;;;14.63;;